Arch, New Mexico
Current Conditions -  °F | °C
As of 10:58 PM on Friday 31 Oct 2014 (Local Time) from KCVS Reporting Station
Clear Clear  
Wind Chill: 39°   Ceiling: Unl
Heat Index: 45°   Visibility: 10mi
Dew Point: 32°   Wind: 10mph
Humidity: 60%   Direction: 170°S
Pressure: 30.33"   Gusts: NA
Location:  34.1669°N, 103.266°W
Report Text: KCVS 010458Z AUTO 17009KT 10SM CLR 07/00 A3033 RMK AO2 SLP252 T00711002 $
Loading
Personal Weather Stations






























Interactive Weather Map
Tropical Storm Tracking
New forecast layout! Learn more

10-Day Weather Forecast

Advertisements
Track Severe Weather on mobile